Heydar Aliyev — 9HFS7 — position and weather

sailwx.info

Track history (hours):
 
Tides and Currents Weather Stations Pressure Air Temp Water Temp Dewpoint Dewpoint Depression Visibility Wind Speed Wind Dir Waves Ship Positions

Heydar Aliyev

Last reported at 2017-Apr-21 00:25 UTC. Time now 2017-Apr-27 09:19 UTC.
Position N 01°14' E 104°00'.

Length 274 m; draft 14.8 m.

Type: Tanker. MMSI: 215213000.

Date/timePositionNaut miles runAvg speedWind from/ knotsBaromVisibWave heightAir tempDewpointWater temp
2017-Apr-21 00:25N 01°14' E 104°00'512.2
2017-Apr-21 00:00N 01°13' E 103°55'612.9
2017-Apr-20 23:30N 01°10' E 103°49'612.1
2017-Apr-20 23:00N 01°06' E 103°45'611.1
2017-Apr-20 22:30N 01°04' E 103°40'510.6
2017-Apr-20 22:00N 01°05' E 103°35'611.2
2017-Apr-20 21:29N 01°08' E 103°30'611.2
2017-Apr-20 20:58N 01°11' E 103°25'511.0
2017-Apr-20 20:29N 01°15' E 103°21'4011.2
2017-Apr-20 16:55N 01°38' E 102°48'1811.3
2017-Apr-20 15:18N 01°45' E 102°32'711.2
2017-Apr-20 14:38N 01°49' E 102°25'811.3
2017-Apr-20 13:55N 01°52' E 102°18'  
Track history (hours):
 
Tides and Currents Weather Stations Pressure Air Temp Water Temp Dewpoint Dewpoint Depression Visibility Wind Speed Wind Dir Waves Ship Positions

Heydar Aliyev

Last reported at 2017-Apr-21 00:25 UTC. Time now 2017-Apr-27 09:19 UTC.
Position N 01°14' E 104°00'.

Length 274 m; draft 14.8 m.

Type: Tanker. MMSI: 215213000.

Date/timePositionNaut miles runAvg speedWind from/ knotsBaromVisibWave heightAir tempDewpointWater temp
2017-Apr-21 00:25N 01°14' E 104°00'512.2
2017-Apr-21 00:00N 01°13' E 103°55'612.9
2017-Apr-20 23:30N 01°10' E 103°49'612.1
2017-Apr-20 23:00N 01°06' E 103°45'611.1
2017-Apr-20 22:30N 01°04' E 103°40'510.6
2017-Apr-20 22:00N 01°05' E 103°35'611.2
2017-Apr-20 21:29N 01°08' E 103°30'611.2
2017-Apr-20 20:58N 01°11' E 103°25'511.0
2017-Apr-20 20:29N 01°15' E 103°21'4011.2
2017-Apr-20 16:55N 01°38' E 102°48'1811.3
2017-Apr-20 15:18N 01°45' E 102°32'711.2
2017-Apr-20 14:38N 01°49' E 102°25'811.3
2017-Apr-20 13:55N 01°52' E 102°18'  

Dump ship's entire track history